createdAt,value
2019-04-06T00:01:00.666Z,31.63
2019-04-06T00:04:07.551Z,29.57
2019-04-06T00:07:14.409Z,32.47
2019-04-06T00:10:21.332Z,32.00
2019-04-06T00:13:28.188Z,29.37
2019-04-06T00:16:35.055Z,29.27
2019-04-06T00:19:41.921Z,30.73
2019-04-06T00:22:48.758Z,29.27
2019-04-06T00:25:55.630Z,28.33
2019-04-06T00:29:02.514Z,28.63
2019-04-06T00:32:25.422Z,29.03
2019-04-06T00:35:32.244Z,30.57
2019-04-06T00:38:39.130Z,30.87
2019-04-06T00:41:45.986Z,29.67
2019-04-06T00:44:52.898Z,28.60
2019-04-06T00:47:59.763Z,32.20
2019-04-06T00:51:06.651Z,37.40
2019-04-06T00:54:16.217Z,33.37
2019-04-06T00:57:23.046Z,35.57
2019-04-06T01:00:29.870Z,36.77
2019-04-06T01:03:36.702Z,31.70
2019-04-06T01:06:43.530Z,32.80
2019-04-06T01:09:50.446Z,33.50
2019-04-06T01:12:58.385Z,45.73
2019-04-06T01:16:05.408Z,40.67
2019-04-06T01:19:12.291Z,36.97
2019-04-06T01:22:19.235Z,38.30
2019-04-06T01:25:26.094Z,30.47
2019-04-06T01:28:32.981Z,31.27
2019-04-06T01:31:39.811Z,35.10
2019-04-06T01:34:46.727Z,32.73
2019-04-06T01:37:53.643Z,29.63
2019-04-06T01:41:00.536Z,33.50
2019-04-06T01:44:07.374Z,33.77
2019-04-06T01:47:14.249Z,27.47
2019-04-06T01:50:21.170Z,32.07
2019-04-06T01:53:28.018Z,28.97
2019-04-06T01:56:36.051Z,33.30
2019-04-06T01:59:43.007Z,31.80
2019-04-06T02:02:51.737Z,31.10
2019-04-06T02:05:58.539Z,31.67
2019-04-06T02:09:06.582Z,31.40
2019-04-06T02:12:13.428Z,29.63
2019-04-06T02:15:20.246Z,30.60
2019-04-06T02:18:27.081Z,31.63
2019-04-06T02:21:33.906Z,32.17
2019-04-06T02:24:40.727Z,33.30
2019-04-06T02:27:47.566Z,30.37
2019-04-06T02:31:02.771Z,31.27
2019-04-06T02:34:23.291Z,30.03
2019-04-06T02:37:50.548Z,35.17
2019-04-06T02:41:10.149Z,27.03
2019-04-06T02:44:17.183Z,35.27
2019-04-06T02:47:24.066Z,28.33
2019-04-06T02:50:30.971Z,36.53
2019-04-06T02:53:38.028Z,32.63
2019-04-06T02:56:47.337Z,34.43
2019-04-06T02:59:53.376Z,35.27
2019-04-06T03:03:00.290Z,34.07
2019-04-06T03:06:07.127Z,30.00
2019-04-06T03:09:14.219Z,26.53
2019-04-06T03:12:21.175Z,30.90
2019-04-06T03:15:28.200Z,28.13
2019-04-06T03:18:35.061Z,29.57
2019-04-06T03:21:41.969Z,34.20
2019-04-06T03:24:48.926Z,36.03
2019-04-06T03:27:57.023Z,31.53
2019-04-06T03:31:03.979Z,31.37
2019-04-06T03:34:10.883Z,33.57
2019-04-06T03:37:19.025Z,33.83
2019-04-06T03:40:25.929Z,31.70
2019-04-06T03:43:32.827Z,34.67
2019-04-06T03:46:39.658Z,32.03
2019-04-06T03:49:46.586Z,35.00
2019-04-06T03:52:53.387Z,36.30
2019-04-06T03:56:00.219Z,32.37
2019-04-06T03:59:07.134Z,36.20
2019-04-06T04:02:14.037Z,35.67
2019-04-06T04:05:20.891Z,32.97
2019-04-06T04:08:27.842Z,37.37
2019-04-06T04:11:34.777Z,36.00
2019-04-06T04:14:41.924Z,35.90
2019-04-06T04:17:48.772Z,34.90
2019-04-06T04:20:55.605Z,34.10
2019-04-06T04:24:02.480Z,34.07
2019-04-06T04:27:09.301Z,30.23
2019-04-06T04:30:30.790Z,30.97
2019-04-06T04:33:24.891Z,31.37
2019-04-06T04:36:31.816Z,29.80
2019-04-06T04:39:38.929Z,31.00
2019-04-06T04:42:45.929Z,31.00
2019-04-06T04:45:52.780Z,26.27
2019-04-06T04:48:59.643Z,30.50
2019-04-06T04:52:06.593Z,29.73
2019-04-06T04:55:32.529Z,30.57
2019-04-06T04:58:39.395Z,29.70
2019-04-06T05:01:46.226Z,32.93
2019-04-06T05:04:53.054Z,33.63
2019-04-06T05:07:59.879Z,30.93
2019-04-06T05:11:06.802Z,29.67
2019-04-06T05:14:50.368Z,31.33
2019-04-06T05:17:57.231Z,30.43
2019-04-06T05:21:04.102Z,27.90
2019-04-06T05:24:10.997Z,27.40
2019-04-06T05:27:17.861Z,28.23
2019-04-06T05:30:24.664Z,29.10
2019-04-06T05:33:31.534Z,28.60
2019-04-06T05:36:38.367Z,28.73
2019-04-06T05:39:45.206Z,27.37
2019-04-06T05:42:52.229Z,26.03
2019-04-06T05:45:59.174Z,27.23
2019-04-06T05:49:06.068Z,29.07
2019-04-06T05:52:12.953Z,28.93
2019-04-06T05:55:19.820Z,28.07
2019-04-06T05:58:26.746Z,25.67
2019-04-06T06:01:33.637Z,28.80
2019-04-06T06:04:41.078Z,27.17
2019-04-06T06:07:48.239Z,29.27
2019-04-06T06:10:55.048Z,25.20
2019-04-06T06:14:01.944Z,26.10
2019-04-06T06:17:09.020Z,25.93
2019-04-06T06:20:16.087Z,26.87
2019-04-06T06:23:22.987Z,28.10
2019-04-06T06:26:30.013Z,25.93
2019-04-06T06:29:37.251Z,25.70
2019-04-06T06:32:44.116Z,27.77
2019-04-06T06:35:51.061Z,27.17
2019-04-06T06:38:57.927Z,30.67
2019-04-06T06:42:05.105Z,25.77
2019-04-06T06:45:12.503Z,27.30
2019-04-06T06:48:19.601Z,27.30
2019-04-06T06:51:37.904Z,25.67
2019-04-06T06:54:56.920Z,25.67
2019-04-06T06:58:24.582Z,25.87
2019-04-06T07:01:35.559Z,27.93
2019-04-06T07:04:54.388Z,23.90
2019-04-06T07:08:13.199Z,26.63
2019-04-06T07:15:38.790Z,23.63
2019-04-06T07:18:57.321Z,21.97
2019-04-06T07:22:16.129Z,25.93
2019-04-06T07:25:34.546Z,25.13
2019-04-06T07:28:53.506Z,21.73
2019-04-06T07:32:12.659Z,23.40
2019-04-06T07:35:31.772Z,25.07
2019-04-06T07:38:49.880Z,20.83
2019-04-06T07:42:08.845Z,24.10
2019-04-06T07:45:27.765Z,24.37
2019-04-06T07:48:46.618Z,22.70
2019-04-06T07:52:05.735Z,22.23
2019-04-06T07:55:24.105Z,22.70
2019-04-06T07:58:48.636Z,22.43
2019-04-06T08:02:02.513Z,21.93
2019-04-06T08:05:20.732Z,23.37
2019-04-06T08:08:39.489Z,21.57
2019-04-06T08:11:58.191Z,21.77
2019-04-06T08:15:16.968Z,23.10
2019-04-06T08:18:36.093Z,23.10
2019-04-06T08:21:54.302Z,25.43
2019-04-06T08:25:12.607Z,23.63
2019-04-06T08:28:19.473Z,23.53
2019-04-06T08:31:45.359Z,23.53
2019-04-06T08:34:52.397Z,23.00
2019-04-06T08:38:18.343Z,24.50
2019-04-06T08:41:44.371Z,22.37
2019-04-06T08:45:10.463Z,23.13
2019-04-06T08:48:36.406Z,21.43
2019-04-06T08:55:51.553Z,22.57
2019-04-06T08:59:17.492Z,22.70
2019-04-06T09:02:43.404Z,21.80
2019-04-06T09:06:09.404Z,22.10
2019-04-06T09:09:35.270Z,22.60
2019-04-06T09:13:01.481Z,21.90
2019-04-06T09:16:46.351Z,22.47
2019-04-06T09:20:12.417Z,22.37
2019-04-06T09:23:38.352Z,21.70
2019-04-06T09:27:04.260Z,23.37
2019-04-06T09:30:22.810Z,21.70
2019-04-06T09:33:41.175Z,23.30
2019-04-06T09:37:00.124Z,23.70
2019-04-06T09:40:19.249Z,21.67
2019-04-06T09:43:37.605Z,22.17
2019-04-06T09:47:01.943Z,21.87
2019-04-06T09:50:42.291Z,20.97
2019-04-06T09:54:19.319Z,22.40
2019-04-06T09:57:48.831Z,22.60
2019-04-06T10:01:14.093Z,23.17
2019-04-06T10:04:51.995Z,23.40
2019-04-06T10:08:24.945Z,22.07
2019-04-06T10:12:08.735Z,22.83
2019-04-06T10:15:40.739Z,25.13
2019-04-06T10:19:09.051Z,23.47
2019-04-06T10:22:46.508Z,23.63
2019-04-06T10:26:16.064Z,23.27
2019-04-06T10:29:50.149Z,24.77
2019-04-06T10:33:44.652Z,23.80
2019-04-06T10:37:22.441Z,21.33
2019-04-06T10:40:58.716Z,21.70
2019-04-06T10:44:55.296Z,23.63
2019-04-06T10:48:33.019Z,23.03
2019-04-06T10:52:13.919Z,22.43
2019-04-06T10:56:15.124Z,22.17
2019-04-06T11:00:00.913Z,18.60
2019-04-06T11:03:21.766Z,23.47
2019-04-06T11:06:47.537Z,22.57
2019-04-06T11:10:32.563Z,22.67
2019-04-06T11:14:16.500Z,22.63
2019-04-06T11:17:58.626Z,23.03
2019-04-06T11:21:43.661Z,22.30
2019-04-06T11:25:24.199Z,21.17
2019-04-06T11:29:09.938Z,18.93
2019-04-06T11:32:44.136Z,21.03
2019-04-06T11:40:13.066Z,17.63
2019-04-06T11:43:40.221Z,18.67
2019-04-06T11:47:09.313Z,17.87
2019-04-06T11:50:53.282Z,19.13
2019-04-06T11:54:30.803Z,17.00
2019-04-06T11:58:03.154Z,16.63
2019-04-06T12:01:43.821Z,15.97
2019-04-06T12:05:09.832Z,17.77
2019-04-06T12:08:54.791Z,18.47
2019-04-06T12:12:39.646Z,21.67
2019-04-06T12:16:24.470Z,18.97
2019-04-06T12:20:09.613Z,17.37
2019-04-06T12:23:54.472Z,16.20
2019-04-06T12:27:39.505Z,17.40
2019-04-06T12:31:05.377Z,16.40
2019-04-06T12:34:43.801Z,15.57
2019-04-06T12:41:37.157Z,14.10
2019-04-06T12:45:19.312Z,15.63
2019-04-06T12:49:15.557Z,13.00
2019-04-06T12:52:41.399Z,12.80
2019-04-06T12:56:26.601Z,13.50
2019-04-06T13:00:30.441Z,13.50
2019-04-06T13:04:15.380Z,13.43
2019-04-06T13:08:00.588Z,12.30
2019-04-06T13:11:45.425Z,12.63
2019-04-06T13:15:20.408Z,12.77
2019-04-06T13:19:18.425Z,13.17
2019-04-06T13:23:03.701Z,13.13
2019-04-06T13:26:48.891Z,13.57
2019-04-06T13:30:25.389Z,11.80
2019-04-06T13:33:57.510Z,14.10
2019-04-06T13:37:42.318Z,13.27
2019-04-06T13:41:27.326Z,12.43
2019-04-06T13:45:12.407Z,13.93
2019-04-06T13:48:57.258Z,11.73
2019-04-06T13:52:42.327Z,11.77
2019-04-06T13:56:16.527Z,11.77
2019-04-06T14:00:19.257Z,12.57
2019-04-06T14:04:04.137Z,8.37
2019-04-06T14:07:48.991Z,10.37
2019-04-06T14:11:15.203Z,10.37
2019-04-06T14:15:00.279Z,11.93
2019-04-06T14:18:45.383Z,11.47
2019-04-06T14:22:30.328Z,11.83
2019-04-06T14:26:15.457Z,12.47
2019-04-06T14:30:12.357Z,9.43
2019-04-06T14:33:50.492Z,13.60
2019-04-06T14:37:30.341Z,14.03
2019-04-06T14:41:07.275Z,13.53
2019-04-06T14:44:48.313Z,13.80
2019-04-06T14:48:13.449Z,13.10
2019-04-06T14:51:38.145Z,14.43
2019-04-06T14:55:11.527Z,14.97
2019-04-06T14:58:27.247Z,11.23
2019-04-06T15:02:12.109Z,13.80
2019-04-06T15:05:57.244Z,11.93
2019-04-06T15:09:42.081Z,12.33
2019-04-06T15:13:27.918Z,13.90
2019-04-06T15:17:12.924Z,13.87
2019-04-06T15:20:57.746Z,21.53
2019-04-06T15:24:30.570Z,20.53
2019-04-06T15:28:15.437Z,13.67
2019-04-06T15:31:48.943Z,24.67
2019-04-06T15:35:39.817Z,9.13
2019-04-06T15:39:16.926Z,17.60
2019-04-06T15:42:38.801Z,11.63
2019-04-06T15:46:23.646Z,12.00
2019-04-06T15:50:26.411Z,10.07
2019-04-06T15:53:45.364Z,10.20
2019-04-06T15:56:57.169Z,10.43
2019-04-06T16:00:17.955Z,9.00
2019-04-06T16:03:43.705Z,11.90
2019-04-06T16:07:17.650Z,11.03
2019-04-06T16:10:43.477Z,9.07
2019-04-06T16:14:27.793Z,10.60
2019-04-06T16:18:13.208Z,10.03
2019-04-06T16:21:39.028Z,11.47
2019-04-06T16:25:23.931Z,10.53
2019-04-06T16:29:08.811Z,11.37
2019-04-06T16:32:42.595Z,13.23
2019-04-06T16:36:20.192Z,12.90
2019-04-06T16:43:26.413Z,8.90
2019-04-06T16:47:11.418Z,8.93
2019-04-06T16:50:35.152Z,9.20
2019-04-06T16:54:01.147Z,8.93
2019-04-06T16:57:45.974Z,10.77
2019-04-06T17:01:17.339Z,9.77
2019-04-06T17:04:36.249Z,9.07
2019-04-06T17:08:09.048Z,10.10
2019-04-06T17:11:25.707Z,10.00
2019-04-06T17:15:10.828Z,10.43
2019-04-06T17:18:55.690Z,9.83
2019-04-06T17:22:40.586Z,11.27
2019-04-06T17:26:06.447Z,10.67
2019-04-06T17:29:32.405Z,12.57
2019-04-06T17:33:09.553Z,12.67
2019-04-06T17:36:35.435Z,13.50
2019-04-06T17:40:01.974Z,13.67
2019-04-06T17:43:28.336Z,14.90
2019-04-06T17:46:54.391Z,13.57
2019-04-06T17:50:39.343Z,14.20
2019-04-06T17:54:05.283Z,14.87
2019-04-06T17:57:31.093Z,14.50
2019-04-06T18:01:16.251Z,14.60
2019-04-06T18:05:01.017Z,14.63
2019-04-06T18:08:26.996Z,15.43
2019-04-06T18:12:12.378Z,15.73
2019-04-06T18:15:20.021Z,16.03
2019-04-06T18:19:05.000Z,15.77
2019-04-06T18:22:12.380Z,17.20
2019-04-06T18:25:57.239Z,16.17
2019-04-06T18:29:23.175Z,18.07
2019-04-06T18:33:03.924Z,17.43
2019-04-06T18:36:24.811Z,16.57
2019-04-06T18:39:43.585Z,18.00
2019-04-06T18:43:02.575Z,17.40
2019-04-06T18:46:21.456Z,16.47
2019-04-06T18:49:40.317Z,16.47
2019-04-06T18:52:59.222Z,57.97
2019-04-06T18:56:17.534Z,15.53
2019-04-06T18:59:35.988Z,18.33
2019-04-06T19:02:54.243Z,16.20
2019-04-06T19:06:13.595Z,17.50
2019-04-06T19:09:31.781Z,16.37
2019-04-06T19:12:50.110Z,16.00
2019-04-06T19:16:08.263Z,20.17
2019-04-06T19:19:26.398Z,20.40
2019-04-06T19:22:44.612Z,18.17
2019-04-06T19:26:01.936Z,18.93
2019-04-06T19:29:28.152Z,19.23
2019-04-06T19:33:04.498Z,20.57
2019-04-06T19:36:30.470Z,19.87
2019-04-06T19:39:56.811Z,19.73
2019-04-06T19:43:41.517Z,19.37
2019-04-06T19:47:07.649Z,21.10
2019-04-06T19:50:53.199Z,20.70
2019-04-06T19:54:37.775Z,22.73
2019-04-06T19:58:03.754Z,23.33
2019-04-06T20:01:29.714Z,21.73
2019-04-06T20:04:56.337Z,21.83
2019-04-06T20:08:41.168Z,22.97
2019-04-06T20:12:25.966Z,21.30
2019-04-06T20:15:51.890Z,21.47
2019-04-06T20:19:17.892Z,21.30
2019-04-06T20:23:01.806Z,22.17
2019-04-06T20:26:46.645Z,21.67
2019-04-06T20:30:13.064Z,22.33
2019-04-06T20:33:31.855Z,21.83
2019-04-06T20:36:50.381Z,22.97
2019-04-06T20:40:09.657Z,23.77
2019-04-06T20:43:27.614Z,23.70
2019-04-06T20:46:54.111Z,23.00
2019-04-06T20:50:38.710Z,20.17
2019-04-06T20:54:04.617Z,20.57
2019-04-06T20:57:30.732Z,21.00
2019-04-06T21:00:56.665Z,20.13
2019-04-06T21:04:22.655Z,19.73
2019-04-06T21:07:48.576Z,19.13
2019-04-06T21:11:15.099Z,19.27
2019-04-06T21:14:59.849Z,19.07
2019-04-06T21:18:44.820Z,22.20
2019-04-06T21:22:10.753Z,21.67
2019-04-06T21:25:36.703Z,21.83
2019-04-06T21:29:02.631Z,19.53
2019-04-06T21:32:38.556Z,18.73
2019-04-06T21:35:56.643Z,19.13
2019-04-06T21:39:15.295Z,18.93
2019-04-06T21:42:34.137Z,20.13
2019-04-06T21:45:53.347Z,22.10
2019-04-06T21:49:12.260Z,22.80
2019-04-06T21:52:32.065Z,22.17
2019-04-06T21:56:00.914Z,23.00
2019-04-06T21:59:11.104Z,25.03
2019-04-06T22:02:29.857Z,24.30
2019-04-06T22:05:47.989Z,25.00
2019-04-06T22:09:08.172Z,26.53
2019-04-06T22:12:27.288Z,24.27
2019-04-06T22:15:46.134Z,25.10
2019-04-06T22:19:05.567Z,24.77
2019-04-06T22:22:24.842Z,24.23
2019-04-06T22:25:43.568Z,25.30
2019-04-06T22:29:01.944Z,24.80
2019-04-06T22:32:20.847Z,25.07
2019-04-06T22:35:39.570Z,23.67
2019-04-06T22:38:59.503Z,24.07
2019-04-06T22:42:18.097Z,24.47
2019-04-06T22:45:37.047Z,23.60
2019-04-06T22:48:56.231Z,25.23
2019-04-06T22:52:15.635Z,24.20
2019-04-06T22:55:34.615Z,26.40
2019-04-06T22:58:53.721Z,27.97
2019-04-06T23:02:12.843Z,25.67
2019-04-06T23:05:37.553Z,23.57
2019-04-06T23:09:04.296Z,24.83
2019-04-06T23:12:48.916Z,24.17
2019-04-06T23:16:15.332Z,25.00
2019-04-06T23:20:00.266Z,23.57
2019-04-06T23:23:45.225Z,33.43
2019-04-06T23:27:11.237Z,37.07
2019-04-06T23:30:37.569Z,39.07
2019-04-06T23:34:14.893Z,47.63
2019-04-06T23:37:32.206Z,40.27
2019-04-06T23:40:58.216Z,39.80
2019-04-06T23:44:24.171Z,39.40
2019-04-06T23:47:50.148Z,36.93
2019-04-06T23:51:16.128Z,34.80
2019-04-06T23:54:42.079Z,33.93
2019-04-06T23:58:08.424Z,34.70
